KRIC/RIC METAR and TAF weather

Enter ICAO airport designator
Station Type Date Time Source
KRIC METAR 2021/09/27 07:54 UTC NOAA

KRIC 270754Z 17004KT 10SM CLR 13/11 A3008 RMK AO2 SLP188 T01280111


Station Type Date Time Source
KRIC Decoded METAR 2021/09/27 07:54 UTC NOAA

RICHMOND INTERNATIONAL AIRPORT, VA, United States (KRIC) 37-31N 077-19W 50M
Sep 27, 2021 - 03:54 AM EDT / 2021.09.27 0754 UTC
Wind: from the S (170 degrees) at 5 MPH (4 KT):0
Visibility: 10 mile(s):0
Sky conditions: clear
Temperature: 55.0 F (12.8 C)
Dew Point: 52.0 F (11.1 C)
Relative Humidity: 89%
Pressure (altimeter): 30.08 in. Hg (1018 hPa)
ob: KRIC 270754Z 17004KT 10SM CLR 13/11 A3008 RMK AO2 SLP188 T01280111
cycle: 8

Station Type Date Time Source
KRIC TAF 2021/09/27 06:22 UTC NOAA

TAF KRIC 270520Z 2706/2806 VRB04KT P6SM SKC
FM271500 22008KT P6SM FEW050

Example: see airport list